메인 페이지
METAR-TAF:

METAR-TAF

공항 :

터스컬루사, 앨라배마, 미국

위도: 33-12-43N, 경도: 087-36-57W, 고도: 52m

현재 날씨관측

예보는 16분 전, 01:53시(UTC)에 발표되었습니다.
무풍
온도 27°C
습도 70%
기압 1018 hPa
시정: 16.1km
맑음

METAR: KTCL 250153Z 00000KT 10SM CLR 27/21 A3007 RMK AO2 SLP181 T02720206

시각: 21:09 (02:09 UTC)

예보

예보는 2 시간 31분 전, 23:38시(UTC)에 발표되었습니다.
예보 대상 시간: 25일 00시부터 25일 24시까지 (UTC)
kt
시정: 10km
맑음
25일 1000시부터 (UTC)
kt
시정: 8.0km
맑음
박무
25일 1230시부터 (UTC)
kt
시정: 10km
맑음
25일 1600시부터 (UTC)
남남서6kt
시정: 10km
고도 5000ft 상공 구름 조금

TAF: KTCL 242338Z 2500/2524 00000KT P6SM SKC FM251000 00000KT 5SM BR SKC FM251230 00000KT P6SM SKC FM251600 21006KT P6SM FEW050

4,000개 이상의 공항 관측 자료 및 예보 (METAR 및 TAF 보고).

지도상에서 검색 가능한 기상관측소가 노란 점과 빨간 점으로 표시되어 있습니다.

기상관측소 명을 보려면 표시 위로 마우스를 이동하세요.

날씨 관측과 예보를 보려면 클릭하세요.

지도 변경 : 확대하려면 엑스 표시가 있는 녹색 버튼, 축소하려면 빼기 표시가 있는 녹색 버튼, 다음 페이지의 지도를 보려면 녹색 화살표를 클릭하세요.


METAR-TAF: